DEDEA EDLW-

Flight info

Callsign DEDEA
Flight time N/A
Altitude
Route DCT
Aircraft DA40

Departure

Time 2026-04-29 13:50
Airport Dortmund Airport (EDLW)

Arrival

Time N/A
Airport -
Time Latitude Longitude Altitude Speed Heading
2026-04-29 13:35 51.40656 6.93966 404 ft 0 kts 40°
2026-04-29 13:39 51.40655 6.93982 411 ft 6 kts 140°
2026-04-29 13:39 51.40603 6.93890 408 ft 20 kts 249°
2026-04-29 13:39 51.40524 6.93601 405 ft 35 kts 240°
2026-04-29 13:40 51.40388 6.93308 402 ft 31 kts 213°
2026-04-29 13:40 51.40255 6.93112 404 ft 25 kts 247°
2026-04-29 13:40 51.40193 6.92895 402 ft 10 kts 224°
2026-04-29 13:40 51.40145 6.92883 405 ft 8 kts 191°
2026-04-29 13:41 51.40100 6.92869 407 ft 2 kts 182°
2026-04-29 13:41 51.40057 6.92878 409 ft 9 kts 137°
2026-04-29 13:41 51.40052 6.92979 413 ft 21 kts 65°
2026-04-29 13:42 51.40174 6.93440 482 ft 57 kts 65°
2026-04-29 13:42 51.40373 6.94110 628 ft 71 kts 65°
2026-04-29 13:42 51.40577 6.94762 931 ft 63 kts 65°
2026-04-29 13:42 51.40822 6.95480 984 ft 82 kts 60°
2026-04-29 13:43 51.41121 6.96229 1060 ft 74 kts 64°
2026-04-29 13:43 51.41334 6.96982 1205 ft 73 kts 67°
2026-04-29 13:43 51.41551 6.97693 1401 ft 80 kts 47°
2026-04-29 13:43 51.42177 6.97918 1398 ft 97 kts 16°
2026-04-29 13:44 51.42844 6.98002 1483 ft 97 kts 15°
2026-04-29 13:44 51.43576 6.98104 1403 ft 107 kts 17°
2026-04-29 13:44 51.44307 6.98213 1478 ft 103 kts 15°
2026-04-29 13:44 51.44984 6.98292 1603 ft 98 kts 17°
2026-04-29 13:45 51.45676 6.98306 1728 ft 99 kts
2026-04-29 13:45 51.46388 6.98263 1848 ft 99 kts 13°
2026-04-29 13:45 51.47057 6.98309 2040 ft 91 kts 10°
2026-04-29 13:45 51.47728 6.98271 2078 ft 97 kts 14°
2026-04-29 13:46 51.48391 6.98251 2115 ft 101 kts 12°
2026-04-29 13:46 51.49111 6.98209 2166 ft 100 kts 12°
2026-04-29 13:46 51.49796 6.98230 2244 ft 100 kts 15°
2026-04-29 13:46 51.50497 6.98300 2405 ft 98 kts 16°
2026-04-29 13:47 51.51174 6.98410 2481 ft 101 kts 18°
2026-04-29 13:47 51.51872 6.98574 2628 ft 101 kts 17°
2026-04-29 13:47 51.52551 6.98723 2749 ft 98 kts 20°
2026-04-29 13:47 51.53245 6.98878 2760 ft 102 kts 15°
2026-04-29 13:48 51.53936 6.98942 2865 ft 99 kts 17°
2026-04-29 13:48 51.54622 6.99018 2980 ft 100 kts 15°
2026-04-29 13:48 51.55243 6.99306 2957 ft 94 kts 57°
2026-04-29 13:48 51.55580 7.00125 3112 ft 81 kts 61°
2026-04-29 13:49 51.55902 7.00933 3079 ft 90 kts 63°
2026-04-29 13:49 51.56220 7.01755 3163 ft 90 kts 63°
2026-04-29 13:49 51.56558 7.02618 3190 ft 91 kts 63°
2026-04-29 13:49 51.56880 7.03479 3232 ft 91 kts 63°
2026-04-29 13:50 51.57221 7.04337 3343 ft 90 kts 62°
2026-04-29 13:50 51.57542 7.05163 3446 ft 88 kts 64°
2026-04-29 13:50 51.57821 7.05998 3554 ft 84 kts 66°
2026-04-29 13:50 51.58072 7.06826 3684 ft 80 kts 66°
2026-04-29 13:51 51.58333 7.07619 3812 ft 82 kts 66°
2026-04-29 13:51 51.58598 7.08438 3963 ft 83 kts 66°
2026-04-29 13:51 51.58856 7.09289 4032 ft 85 kts 68°
2026-04-29 13:51 51.59135 7.10117 4129 ft 85 kts 66°
2026-04-29 13:52 51.59427 7.10970 4162 ft 88 kts 66°
2026-04-29 13:52 51.59739 7.11852 4182 ft 91 kts 66°
2026-04-29 13:52 51.60088 7.12528 4024 ft 75 kts 52°
2026-04-29 13:52 51.60491 7.13095 3613 ft 81 kts 45°
2026-04-29 13:53 51.61010 7.13570 3160 ft 85 kts 40°
2026-04-29 13:53 51.61557 7.13876 2681 ft 97 kts 351°
2026-04-29 13:53 51.62107 7.12734 1664 ft 121 kts 335°
2026-04-29 13:53 51.62751 7.12451 1390 ft 82 kts 17°
2026-04-29 13:54 51.63321 7.12627 1244 ft 80 kts 23°
2026-04-29 13:54 51.63807 7.12792 1051 ft 63 kts 29°
2026-04-29 13:54 51.64121 7.13204 839 ft 67 kts 72°
2026-04-29 13:54 51.64250 7.13949 734 ft 67 kts 74°
2026-04-29 13:55 51.64375 7.14632 590 ft 58 kts 71°
2026-04-29 13:55 51.64525 7.15323 376 ft 73 kts 72°
2026-04-29 13:55 51.64685 7.16129 232 ft 63 kts 71°
2026-04-29 13:55 51.64754 7.16499 236 ft 18 kts 71°
2026-04-29 13:56 51.64782 7.16651 239 ft 11 kts 74°
2026-04-29 13:56 51.64808 7.16797 240 ft 12 kts 73°
2026-04-29 13:56 51.64836 7.16908 238 ft 10 kts 51°
2026-04-29 13:56 51.64885 7.16880 236 ft 4 kts 272°
2026-04-29 13:57 51.64858 7.16782 237 ft 14 kts 252°
2026-04-29 13:57 51.64829 7.16637 237 ft 14 kts 251°
2026-04-29 13:57 51.64797 7.16481 237 ft 15 kts 252°
2026-04-29 13:57 51.64765 7.16317 237 ft 16 kts 252°
2026-04-29 13:58 51.64729 7.16138 232 ft 18 kts 255°
2026-04-29 13:58 51.64746 7.16050 234 ft 11 kts 303°
2026-04-29 13:58 51.64756 7.15994 234 ft 0 kts 256°